NCAR-RAP Real-Time Weather Data

Output produced by METARs form (23 January 2018  15:34 UTC)
found at http://weather.rap.ucar.edu/surface/
 
RJOB 231200Z 27010KT 9999 FEW020 M02/M09 Q1015
RJOB 231100Z 27009KT 9999 FEW020 M02/M08 Q1015
RJOB 231000Z 27009KT 9999 FEW020 SCT045 M01/M09 Q1014
RJOB 230900Z 28014KT 9999 FEW020 SCT045 M01/M10 Q1014
RJOB 230818Z 27015G26KT 240V300 9999 FEW020 SCT045 00/M10 Q1013 RMK 1CU020 3CU045 A2993
RJOB 230800Z 26014KT 9999 FEW020 SCT045 01/M08 Q1013
RJOB 230703Z 28019G31KT 240V320 9999 FEW020 SCT/// 01/M09 Q1013 RMK 1CU020 A2991
RJOB 230700Z 28018KT 240V320 9999 FEW020 SCT/// 01/M10 Q1012
RJOB 230600Z 28021G31KT 250V310 9999 FEW015 SCT040 BKN/// 02/M06 Q1012
RJOB 230532Z 28015G27KT 250V320 9999 FEW010 SCT045 03/M01 Q1012 RMK 1CU010 3CU045 A2989
RJOB 230500Z 27011KT 9999 FEW005 SCT045 03/01 Q1011
RJOB 230428Z 27009KT 230V300 6000 -SHSN FEW003 SCT010 BKN015 02/01 Q1011 RMK 1ST003 3CU010 5CU015 A2987
RJOB 230416Z 29008KT 250V330 4500 -SHSN FEW007 SCT010 BKN015 01/01 Q1011 RMK 1ST007 4CU010 6CU015 A2988
RJOB 230400Z 29010KT 260V330 6000 R07/P2000N -SHSN FEW007 SCT010 BKN020 02/01 Q1011
RJOB 230348Z 29013G25KT 260V330 4500 R07/P2000N -SHSN FEW008 SCT010 BKN020 02/00 Q1011 RMK 1ST008 4CU010 6CU020 A2988 1000NE-E
RJOB 230337Z 28015G25KT 250V330 7000 -SHRASN FEW015 SCT025 BKN035 03/01 Q1011 RMK 1CU015 4CU025 6CU035 A2987
RJOB 230300Z 27011KT 240V300 8000 -SHRASN FEW015 SCT025 BKN035 04/02 Q1011
RJOB 230200Z 26013KT 240V310 7000 FEW015 SCT045 05/01 Q1011
RJOB 230100Z 27009KT 9000 VCSH FEW010 SCT035 04/01 Q1011
RJOB 230000Z 29009KT 8000 -SHRA FEW015 SCT025 BKN035 03/02 Q1011
RJOB 222300Z 27006KT 6000 FEW015 03/02 Q1010
RJOB 222200Z 27007KT 7000 FEW006 SCT015 BKN050 02/01 Q1010
RJOB 222115Z 26005KT 7000 FEW006 SCT015 BKN050 02/01 Q1009 RMK 1ST006 4CU015 6SC050 A2982
RJOB 221213Z 24006KT 0200 R07/0250N FG FEW000 BKN001 M01/M01 Q1011 RMK 1ST000 5ST001 A2987
RJOB 221200Z 26004KT 0500 R07/0250N FG FEW000 BKN001 M01/M01 Q1011
RJOB 221120Z 26005KT 0400 R07/0225V0325N FG FEW000 BKN001 M00/M01 Q1011 RMK 1ST000 5ST001 A2987
RJOB 221112Z 26005KT 1500 R07/0275V0500N BR PRFG FEW000 SCT001 M01/M01 Q1011 RMK 1ST000 4ST001 A2987 FG S-SW
RJOB 221105Z 26005KT 3500 R07/0375V0600N BR PRFG FEW000 M01/M01 Q1011 RMK 1ST000 A2987 FG S-SW
RJOB 221100Z 26006KT 4500 R07/0400VP2000D BR PRFG FEW000 M01/M01 Q1011
RJOB 221000Z 27005KT 8000 FEW002 00/00 Q1011
RJOB 220920Z 27005KT 5000 R07/0800VP2000U BR PRFG FEW000 M01/M01 Q1011 RMK 1ST000 A2987 FG SE
RJOB 220900Z 25003KT 0600 R07/0275N FG FEW000 SCT001 BKN010 00/00 Q1011
RJOB 220848Z 27004KT 0500 R07/0275V0800D FG FEW000 SCT002 BKN010 00/M00 Q1011 RMK 1ST000 4ST002 6ST010 A2986 8000NE
RJOB 220841Z 27005KT 0400 R07/0325VP2000D FG FEW000 SCT002 BKN010 00/M00 Q1011 RMK 1ST000 4ST002 6ST010 A2985 5000NE
RJOB 220800Z 26002KT 9999 PRFG FEW000 BKN090 01/01 Q1010
RJOB 220700Z 31003KT 280V360 6000 -SHRASN BCFG FEW000 SCT008 BKN020 01/01 Q1011
RJOB 220628Z 34003KT 5000 -RASN BR FEW001 SCT008 BKN015 01/01 Q1010 RMK 1ST001 3ST008 6CU015 A2985
RJOB 220600Z 33003KT 300V020 4000 -SN BR FEW001 SCT006 BKN010 01/01 Q1011
RJOB 220536Z 33004KT 290V360 1200 R07/1400VP2000U -SN BR FEW001 SCT006 BKN010 01/00 Q1010 RMK 1ST001 3ST006 5ST010 A2985
RJOB 220500Z 34003KT 280V010 0900 R07/1900D SN FEW002 SCT004 BKN008 01/00 Q1010
RJOB 220431Z 33003KT 310V010 1500 R07/P2000N -SN BR FEW002 SCT003 BKN008 01/00 Q1011 RMK 1ST002 4ST003 6ST008 A2986
RJOB 220409Z 33003KT 0700 R07/1500VP2000N SN FEW002 SCT003 BKN005 00/00 Q1011 RMK 1ST002 4ST003 6ST005 A2986
RJOB 220400Z 00000KT 0700 R07/1100V1700U SN FEW002 SCT003 BKN005 00/00 Q1011
RJOB 220347Z 06001KT 0600 R07/0750V1300D SN FEW002 SCT003 BKN005 00/00 Q1011 RMK 1ST002 4ST003 6ST005 A2987
RJOB 220330Z 06002KT 0700 R07/1100V1500D SN FEW002 SCT004 BKN008 00/00 Q1012 RMK 1ST002 4ST004 6ST008 A2988
RJOB 220323Z 04002KT 0700 R07/1200VP2000D SN FEW002 SCT004 BKN008 00/M00 Q1012 RMK 1ST002 4ST004 6ST008 A2989
RJOB 220308Z 04003KT 0800 R07/1400VP2000D SN FEW003 SCT005 BKN010 01/00 Q1012 RMK 1ST003 4ST005 6ST010 A2990
RJOB 220300Z 04003KT 1500 R07/P2000N -SN BR FEW005 SCT008 BKN010 01/00 Q1012
RJOB 220200Z VRB02KT 9999 -RASN FEW020 SCT025 BKN035 03/00 Q1014
RJOB 220100Z 34004KT 9999 FEW020 SCT040 BKN050 04/M01 Q1015
RJOB 220000Z VRB02KT 9999 FEW025 SCT060 BKN080 04/M01 Q1015
RJOB 212300Z VRB02KT 9999 FEW025 SCT060 BKN080 03/M01 Q1016
RJOB 212200Z 08004KT 020V160 9999 FEW025 SCT060 BKN100 02/M01 Q1015
RJOB 212115Z 06007KT 9999 FEW025 BKN100 02/M01 Q1015 RMK 1CU025 7AC100 A3000
RJOB 211200Z 34003KT 300V020 9999 FEW025 BKN/// 04/M03 Q1020
RJOB 211100Z 33003KT 290V360 9999 FEW025 BKN/// 04/M03 Q1020
RJOB 211000Z 35005KT 270V030 9999 FEW030 BKN/// 05/M04 Q1020
RJOB 210900Z 33004KT 290V030 9999 FEW030 SCT/// 06/M05 Q1020
RJOB 210800Z 34003KT 270V050 9999 FEW030 BKN/// 07/M04 Q1019
RJOB 210700Z 35006KT 270V060 9999 FEW025 SCT040 09/M03 Q1019
RJOB 210600Z 31005KT 240V030 9999 FEW025 SCT040 BKN050 08/M00 Q1019
RJOB 210536Z 02010KT 9999 FEW025 BKN040 08/M01 Q1018 RMK 1CU025 5CU040 A3008
RJOB 210500Z 29007KT 260V050 9999 FEW025 SCT040 10/M01 Q1018
RJOB 210400Z 30006KT 250V010 9999 -SHRA FEW025 BKN040 08/M01 Q1019